sensor_id;sensor_type;location;lat;lon;timestamp;P1;durP1;ratioP1;P2;durP2;ratioP2
57826;SDS011;43656;57.746;11.780;2023-05-16T00:01:53;17.85;;;10.95;;
57826;SDS011;43656;57.746;11.780;2023-05-16T00:04:19;15.82;;;11.18;;
57826;SDS011;43656;57.746;11.780;2023-05-16T00:06:45;18.83;;;11.48;;
57826;SDS011;43656;57.746;11.780;2023-05-16T00:09:11;20.13;;;11.77;;
57826;SDS011;43656;57.746;11.780;2023-05-16T00:11:36;17.50;;;11.50;;
57826;SDS011;43656;57.746;11.780;2023-05-16T00:14:02;20.50;;;12.45;;
57826;SDS011;43656;57.746;11.780;2023-05-16T00:16:27;17.20;;;12.13;;
57826;SDS011;43656;57.746;11.780;2023-05-16T00:18:54;19.23;;;12.75;;
57826;SDS011;43656;57.746;11.780;2023-05-16T00:21:21;20.70;;;12.57;;
57826;SDS011;43656;57.746;11.780;2023-05-16T00:23:47;17.92;;;12.98;;
57826;SDS011;43656;57.746;11.780;2023-05-16T00:26:13;20.70;;;13.10;;
57826;SDS011;43656;57.746;11.780;2023-05-16T00:28:38;18.50;;;13.40;;
57826;SDS011;43656;57.746;11.780;2023-05-16T00:31:03;16.08;;;12.60;;
57826;SDS011;43656;57.746;11.780;2023-05-16T00:33:29;20.55;;;12.52;;
57826;SDS011;43656;57.746;11.780;2023-05-16T00:35:55;15.25;;;12.82;;
57826;SDS011;43656;57.746;11.780;2023-05-16T00:38:20;19.63;;;13.80;;
57826;SDS011;43656;57.746;11.780;2023-05-16T00:40:45;16.65;;;13.82;;
57826;SDS011;43656;57.746;11.780;2023-05-16T00:43:11;24.75;;;18.80;;
57826;SDS011;43656;57.746;11.780;2023-05-16T00:45:37;20.85;;;17.38;;
57826;SDS011;43656;57.746;11.780;2023-05-16T00:48:04;23.02;;;18.40;;
57826;SDS011;43656;57.746;11.780;2023-05-16T00:50:31;21.50;;;17.67;;
57826;SDS011;43656;57.746;11.780;2023-05-16T00:52:58;22.20;;;18.90;;
57826;SDS011;43656;57.746;11.780;2023-05-16T00:55:24;25.08;;;18.88;;
57826;SDS011;43656;57.746;11.780;2023-05-16T00:57:49;23.52;;;18.77;;
57826;SDS011;43656;57.746;11.780;2023-05-16T01:00:16;25.00;;;19.92;;
57826;SDS011;43656;57.746;11.780;2023-05-16T01:02:43;30.83;;;20.98;;
57826;SDS011;43656;57.746;11.780;2023-05-16T01:05:10;24.55;;;21.65;;
57826;SDS011;43656;57.746;11.780;2023-05-16T01:07:35;26.55;;;21.70;;
57826;SDS011;43656;57.746;11.780;2023-05-16T01:10:01;29.75;;;23.55;;
57826;SDS011;43656;57.746;11.780;2023-05-16T01:12:40;31.48;;;24.73;;
57826;SDS011;43656;57.746;11.780;2023-05-16T01:15:37;33.15;;;25.02;;
57826;SDS011;43656;57.746;11.780;2023-05-16T01:18:14;30.98;;;26.58;;
57826;SDS011;43656;57.746;11.780;2023-05-16T01:26:14;29.05;;;25.88;;
57826;SDS011;43656;57.746;11.780;2023-05-16T01:28:51;28.17;;;25.08;;
57826;SDS011;43656;57.746;11.780;2023-05-16T01:31:17;33.03;;;25.92;;
57826;SDS011;43656;57.746;11.780;2023-05-16T01:33:43;28.20;;;24.13;;
57826;SDS011;43656;57.746;11.780;2023-05-16T01:41:24;30.25;;;25.00;;
57826;SDS011;43656;57.746;11.780;2023-05-16T01:44:04;29.23;;;25.13;;
57826;SDS011;43656;57.746;11.780;2023-05-16T01:46:36;26.60;;;23.30;;
57826;SDS011;43656;57.746;11.780;2023-05-16T01:51:44;30.80;;;26.88;;
57826;SDS011;43656;57.746;11.780;2023-05-16T01:54:16;29.20;;;24.67;;
57826;SDS011;43656;57.746;11.780;2023-05-16T01:56:44;29.02;;;23.73;;
57826;SDS011;43656;57.746;11.780;2023-05-16T01:59:15;27.15;;;23.85;;
57826;SDS011;43656;57.746;11.780;2023-05-16T02:01:41;23.80;;;21.20;;
57826;SDS011;43656;57.746;11.780;2023-05-16T02:04:07;24.52;;;20.55;;
57826;SDS011;43656;57.746;11.780;2023-05-16T02:06:33;23.98;;;21.45;;
57826;SDS011;43656;57.746;11.780;2023-05-16T02:08:58;25.70;;;22.92;;
57826;SDS011;43656;57.746;11.780;2023-05-16T02:11:24;27.92;;;22.20;;
57826;SDS011;43656;57.746;11.780;2023-05-16T02:13:50;26.77;;;21.95;;
57826;SDS011;43656;57.746;11.780;2023-05-16T02:16:15;26.92;;;23.15;;
57826;SDS011;43656;57.746;11.780;2023-05-16T02:18:40;37.42;;;26.13;;
57826;SDS011;43656;57.746;11.780;2023-05-16T02:21:06;31.08;;;25.30;;
57826;SDS011;43656;57.746;11.780;2023-05-16T02:23:32;30.08;;;25.40;;
57826;SDS011;43656;57.746;11.780;2023-05-16T02:25:58;33.60;;;26.05;;
57826;SDS011;43656;57.746;11.780;2023-05-16T02:28:23;28.88;;;25.25;;
57826;SDS011;43656;57.746;11.780;2023-05-16T02:30:55;30.20;;;26.77;;
57826;SDS011;43656;57.746;11.780;2023-05-16T02:33:24;26.63;;;22.63;;
57826;SDS011;43656;57.746;11.780;2023-05-16T02:35:53;27.25;;;22.92;;
57826;SDS011;43656;57.746;11.780;2023-05-16T02:38:19;31.98;;;25.55;;
57826;SDS011;43656;57.746;11.780;2023-05-16T02:40:48;30.27;;;23.77;;
57826;SDS011;43656;57.746;11.780;2023-05-16T02:43:14;27.85;;;24.08;;
57826;SDS011;43656;57.746;11.780;2023-05-16T02:45:40;25.02;;;22.10;;
57826;SDS011;43656;57.746;11.780;2023-05-16T02:48:05;28.00;;;21.42;;
57826;SDS011;43656;57.746;11.780;2023-05-16T02:50:31;21.45;;;19.10;;
57826;SDS011;43656;57.746;11.780;2023-05-16T02:52:57;22.73;;;18.88;;
57826;SDS011;43656;57.746;11.780;2023-05-16T02:55:27;21.17;;;19.08;;
57826;SDS011;43656;57.746;11.780;2023-05-16T02:57:52;22.95;;;20.58;;
57826;SDS011;43656;57.746;11.780;2023-05-16T03:00:18;22.45;;;20.08;;
57826;SDS011;43656;57.746;11.780;2023-05-16T03:02:44;27.95;;;20.92;;
57826;SDS011;43656;57.746;11.780;2023-05-16T03:05:10;28.17;;;24.77;;
57826;SDS011;43656;57.746;11.780;2023-05-16T03:07:36;30.27;;;27.00;;
57826;SDS011;43656;57.746;11.780;2023-05-16T03:10:02;33.47;;;26.83;;
57826;SDS011;43656;57.746;11.780;2023-05-16T03:12:28;32.33;;;28.15;;
57826;SDS011;43656;57.746;11.780;2023-05-16T03:14:54;31.55;;;27.00;;
57826;SDS011;43656;57.746;11.780;2023-05-16T03:17:19;35.30;;;26.88;;
57826;SDS011;43656;57.746;11.780;2023-05-16T03:19:45;31.63;;;26.33;;
57826;SDS011;43656;57.746;11.780;2023-05-16T03:22:10;33.42;;;27.08;;
57826;SDS011;43656;57.746;11.780;2023-05-16T03:24:36;30.85;;;27.27;;
57826;SDS011;43656;57.746;11.780;2023-05-16T03:27:01;34.70;;;26.90;;
57826;SDS011;43656;57.746;11.780;2023-05-16T03:29:28;29.48;;;26.17;;
57826;SDS011;43656;57.746;11.780;2023-05-16T03:31:54;35.42;;;26.60;;
57826;SDS011;43656;57.746;11.780;2023-05-16T03:34:20;28.90;;;25.80;;
57826;SDS011;43656;57.746;11.780;2023-05-16T03:36:49;32.78;;;26.80;;
57826;SDS011;43656;57.746;11.780;2023-05-16T03:39:15;28.67;;;25.63;;
57826;SDS011;43656;57.746;11.780;2023-05-16T03:41:40;30.00;;;26.50;;
57826;SDS011;43656;57.746;11.780;2023-05-16T03:44:06;33.00;;;27.00;;
57826;SDS011;43656;57.746;11.780;2023-05-16T03:46:32;28.42;;;24.63;;
57826;SDS011;43656;57.746;11.780;2023-05-16T03:48:57;30.38;;;25.35;;
57826;SDS011;43656;57.746;11.780;2023-05-16T03:51:23;64.07;;;41.15;;
57826;SDS011;43656;57.746;11.780;2023-05-16T03:53:48;70.25;;;41.15;;
57826;SDS011;43656;57.746;11.780;2023-05-16T03:56:14;87.82;;;43.25;;
57826;SDS011;43656;57.746;11.780;2023-05-16T03:58:39;126.53;;;42.42;;
57826;SDS011;43656;57.746;11.780;2023-05-16T04:01:05;94.93;;;40.90;;
57826;SDS011;43656;57.746;11.780;2023-05-16T04:03:30;119.47;;;40.53;;
57826;SDS011;43656;57.746;11.780;2023-05-16T04:05:57;78.70;;;37.50;;
57826;SDS011;43656;57.746;11.780;2023-05-16T04:08:23;75.68;;;36.33;;
57826;SDS011;43656;57.746;11.780;2023-05-16T04:10:49;61.25;;;35.30;;
57826;SDS011;43656;57.746;11.780;2023-05-16T04:13:15;57.25;;;35.22;;
57826;SDS011;43656;57.746;11.780;2023-05-16T04:15:41;55.33;;;35.83;;
57826;SDS011;43656;57.746;11.780;2023-05-16T04:18:07;47.70;;;33.17;;
57826;SDS011;43656;57.746;11.780;2023-05-16T04:20:33;46.72;;;32.17;;
57826;SDS011;43656;57.746;11.780;2023-05-16T04:22:59;50.92;;;33.55;;
57826;SDS011;43656;57.746;11.780;2023-05-16T04:25:24;50.20;;;33.28;;
57826;SDS011;43656;57.746;11.780;2023-05-16T04:27:50;49.63;;;32.55;;
57826;SDS011;43656;57.746;11.780;2023-05-16T04:30:16;44.47;;;31.05;;
57826;SDS011;43656;57.746;11.780;2023-05-16T04:32:42;35.92;;;27.42;;
57826;SDS011;43656;57.746;11.780;2023-05-16T04:35:07;27.55;;;24.55;;
57826;SDS011;43656;57.746;11.780;2023-05-16T04:37:33;27.80;;;23.08;;
57826;SDS011;43656;57.746;11.780;2023-05-16T04:39:59;27.15;;;21.80;;
57826;SDS011;43656;57.746;11.780;2023-05-16T04:42:25;25.70;;;21.35;;
57826;SDS011;43656;57.746;11.780;2023-05-16T04:44:51;24.02;;;21.50;;
57826;SDS011;43656;57.746;11.780;2023-05-16T04:47:17;23.08;;;19.30;;
57826;SDS011;43656;57.746;11.780;2023-05-16T04:49:42;24.80;;;18.67;;
57826;SDS011;43656;57.746;11.780;2023-05-16T04:52:08;21.58;;;19.38;;
57826;SDS011;43656;57.746;11.780;2023-05-16T04:54:33;18.80;;;16.95;;
57826;SDS011;43656;57.746;11.780;2023-05-16T04:56:59;17.02;;;15.25;;
57826;SDS011;43656;57.746;11.780;2023-05-16T04:59:25;22.48;;;14.10;;
57826;SDS011;43656;57.746;11.780;2023-05-16T05:01:50;16.70;;;13.40;;
57826;SDS011;43656;57.746;11.780;2023-05-16T05:04:16;14.60;;;12.63;;
57826;SDS011;43656;57.746;11.780;2023-05-16T05:06:41;14.73;;;12.15;;
57826;SDS011;43656;57.746;11.780;2023-05-16T05:09:07;17.13;;;12.15;;
57826;SDS011;43656;57.746;11.780;2023-05-16T05:11:33;13.55;;;11.15;;
57826;SDS011;43656;57.746;11.780;2023-05-16T05:13:59;12.60;;;10.93;;
57826;SDS011;43656;57.746;11.780;2023-05-16T05:16:25;11.70;;;10.23;;
57826;SDS011;43656;57.746;11.780;2023-05-16T05:18:51;12.98;;;9.82;;
57826;SDS011;43656;57.746;11.780;2023-05-16T05:21:16;12.30;;;9.88;;
57826;SDS011;43656;57.746;11.780;2023-05-16T05:23:44;13.13;;;10.63;;
57826;SDS011;43656;57.746;11.780;2023-05-16T05:26:10;10.82;;;8.45;;
57826;SDS011;43656;57.746;11.780;2023-05-16T05:28:36;14.27;;;10.18;;
57826;SDS011;43656;57.746;11.780;2023-05-16T05:31:03;13.95;;;9.82;;
57826;SDS011;43656;57.746;11.780;2023-05-16T05:33:29;12.35;;;8.80;;
57826;SDS011;43656;57.746;11.780;2023-05-16T05:35:55;11.80;;;7.65;;
57826;SDS011;43656;57.746;11.780;2023-05-16T05:38:21;14.77;;;8.32;;
57826;SDS011;43656;57.746;11.780;2023-05-16T05:40:47;15.48;;;8.00;;
57826;SDS011;43656;57.746;11.780;2023-05-16T05:43:13;11.23;;;7.82;;
57826;SDS011;43656;57.746;11.780;2023-05-16T05:45:39;11.27;;;7.40;;
57826;SDS011;43656;57.746;11.780;2023-05-16T05:48:05;10.82;;;7.72;;
57826;SDS011;43656;57.746;11.780;2023-05-16T05:50:31;10.85;;;7.90;;
57826;SDS011;43656;57.746;11.780;2023-05-16T05:52:56;13.43;;;9.45;;
57826;SDS011;43656;57.746;11.780;2023-05-16T05:55:22;12.35;;;9.30;;
57826;SDS011;43656;57.746;11.780;2023-05-16T05:57:47;13.52;;;8.70;;
57826;SDS011;43656;57.746;11.780;2023-05-16T06:00:12;13.55;;;8.50;;
57826;SDS011;43656;57.746;11.780;2023-05-16T06:02:38;14.52;;;9.30;;
57826;SDS011;43656;57.746;11.780;2023-05-16T06:05:04;13.18;;;9.43;;
57826;SDS011;43656;57.746;11.780;2023-05-16T06:07:30;12.75;;;8.60;;
57826;SDS011;43656;57.746;11.780;2023-05-16T06:09:55;12.93;;;8.75;;
57826;SDS011;43656;57.746;11.780;2023-05-16T06:12:20;17.90;;;8.07;;
57826;SDS011;43656;57.746;11.780;2023-05-16T06:14:46;10.82;;;7.50;;
57826;SDS011;43656;57.746;11.780;2023-05-16T06:17:11;11.85;;;7.63;;
57826;SDS011;43656;57.746;11.780;2023-05-16T06:19:37;13.43;;;7.80;;
57826;SDS011;43656;57.746;11.780;2023-05-16T06:22:02;12.02;;;6.82;;
57826;SDS011;43656;57.746;11.780;2023-05-16T06:24:28;12.75;;;6.93;;
57826;SDS011;43656;57.746;11.780;2023-05-16T06:26:54;11.40;;;7.55;;
57826;SDS011;43656;57.746;11.780;2023-05-16T06:29:19;12.38;;;7.93;;
57826;SDS011;43656;57.746;11.780;2023-05-16T06:31:45;10.55;;;6.63;;
57826;SDS011;43656;57.746;11.780;2023-05-16T06:34:11;11.93;;;5.68;;
57826;SDS011;43656;57.746;11.780;2023-05-16T06:36:37;12.30;;;7.03;;
57826;SDS011;43656;57.746;11.780;2023-05-16T06:39:02;11.55;;;6.60;;
57826;SDS011;43656;57.746;11.780;2023-05-16T06:41:28;11.15;;;6.43;;
57826;SDS011;43656;57.746;11.780;2023-05-16T06:43:54;9.07;;;5.40;;
57826;SDS011;43656;57.746;11.780;2023-05-16T06:46:20;10.50;;;5.20;;
57826;SDS011;43656;57.746;11.780;2023-05-16T06:48:46;12.60;;;5.80;;
57826;SDS011;43656;57.746;11.780;2023-05-16T06:51:11;9.40;;;5.57;;
57826;SDS011;43656;57.746;11.780;2023-05-16T06:53:36;12.90;;;5.38;;
57826;SDS011;43656;57.746;11.780;2023-05-16T06:56:02;12.93;;;5.47;;
57826;SDS011;43656;57.746;11.780;2023-05-16T06:58:27;13.05;;;6.45;;
57826;SDS011;43656;57.746;11.780;2023-05-16T07:00:53;15.27;;;6.13;;
57826;SDS011;43656;57.746;11.780;2023-05-16T07:03:18;13.20;;;6.78;;
57826;SDS011;43656;57.746;11.780;2023-05-16T07:05:44;15.30;;;7.28;;
57826;SDS011;43656;57.746;11.780;2023-05-16T07:08:09;11.02;;;7.65;;
57826;SDS011;43656;57.746;11.780;2023-05-16T07:10:35;13.32;;;7.82;;
57826;SDS011;43656;57.746;11.780;2023-05-16T07:13:00;11.50;;;6.47;;
57826;SDS011;43656;57.746;11.780;2023-05-16T07:15:26;11.23;;;6.55;;
57826;SDS011;43656;57.746;11.780;2023-05-16T07:17:51;11.98;;;6.28;;
57826;SDS011;43656;57.746;11.780;2023-05-16T07:20:17;11.93;;;6.13;;
57826;SDS011;43656;57.746;11.780;2023-05-16T07:22:42;11.05;;;6.05;;
57826;SDS011;43656;57.746;11.780;2023-05-16T07:25:08;11.10;;;6.15;;
57826;SDS011;43656;57.746;11.780;2023-05-16T07:27:37;10.77;;;5.35;;
57826;SDS011;43656;57.746;11.780;2023-05-16T07:30:05;10.07;;;5.50;;
57826;SDS011;43656;57.746;11.780;2023-05-16T07:32:36;15.88;;;5.25;;
57826;SDS011;43656;57.746;11.780;2023-05-16T07:35:02;10.77;;;5.40;;
57826;SDS011;43656;57.746;11.780;2023-05-16T07:37:28;9.85;;;5.05;;
57826;SDS011;43656;57.746;11.780;2023-05-16T07:39:54;9.40;;;5.18;;
57826;SDS011;43656;57.746;11.780;2023-05-16T07:42:19;10.65;;;5.30;;
57826;SDS011;43656;57.746;11.780;2023-05-16T07:44:45;9.02;;;5.55;;
57826;SDS011;43656;57.746;11.780;2023-05-16T07:47:10;15.45;;;5.60;;
57826;SDS011;43656;57.746;11.780;2023-05-16T07:49:36;7.88;;;4.72;;
57826;SDS011;43656;57.746;11.780;2023-05-16T07:52:01;10.70;;;4.53;;
57826;SDS011;43656;57.746;11.780;2023-05-16T07:54:27;13.85;;;5.10;;
57826;SDS011;43656;57.746;11.780;2023-05-16T07:56:52;11.68;;;5.38;;
57826;SDS011;43656;57.746;11.780;2023-05-16T07:59:18;11.77;;;5.10;;
57826;SDS011;43656;57.746;11.780;2023-05-16T08:01:43;11.10;;;5.35;;
57826;SDS011;43656;57.746;11.780;2023-05-16T08:04:09;12.18;;;5.18;;
57826;SDS011;43656;57.746;11.780;2023-05-16T08:06:34;11.00;;;4.80;;
57826;SDS011;43656;57.746;11.780;2023-05-16T08:09:01;11.80;;;5.40;;
57826;SDS011;43656;57.746;11.780;2023-05-16T08:11:26;9.57;;;4.80;;
57826;SDS011;43656;57.746;11.780;2023-05-16T08:13:52;8.23;;;4.32;;
57826;SDS011;43656;57.746;11.780;2023-05-16T08:16:17;9.75;;;4.78;;
57826;SDS011;43656;57.746;11.780;2023-05-16T08:18:43;12.38;;;5.15;;
57826;SDS011;43656;57.746;11.780;2023-05-16T08:21:08;11.88;;;4.68;;
57826;SDS011;43656;57.746;11.780;2023-05-16T08:23:34;12.13;;;6.33;;
57826;SDS011;43656;57.746;11.780;2023-05-16T08:26:00;8.60;;;5.50;;
57826;SDS011;43656;57.746;11.780;2023-05-16T08:28:27;9.52;;;4.80;;
57826;SDS011;43656;57.746;11.780;2023-05-16T08:30:52;10.48;;;4.68;;
57826;SDS011;43656;57.746;11.780;2023-05-16T08:33:18;11.32;;;5.82;;
57826;SDS011;43656;57.746;11.780;2023-05-16T08:35:44;13.48;;;6.43;;
57826;SDS011;43656;57.746;11.780;2023-05-16T08:38:10;11.00;;;6.22;;
57826;SDS011;43656;57.746;11.780;2023-05-16T08:40:36;12.00;;;6.55;;
57826;SDS011;43656;57.746;11.780;2023-05-16T08:43:01;11.05;;;6.40;;
57826;SDS011;43656;57.746;11.780;2023-05-16T08:45:28;12.10;;;6.10;;
57826;SDS011;43656;57.746;11.780;2023-05-16T08:47:55;13.75;;;6.32;;
57826;SDS011;43656;57.746;11.780;2023-05-16T08:50:21;13.52;;;6.88;;
57826;SDS011;43656;57.746;11.780;2023-05-16T08:52:49;9.75;;;6.53;;
57826;SDS011;43656;57.746;11.780;2023-05-16T08:55:16;13.38;;;7.10;;
57826;SDS011;43656;57.746;11.780;2023-05-16T08:57:44;14.48;;;7.60;;
57826;SDS011;43656;57.746;11.780;2023-05-16T09:00:09;11.07;;;7.05;;
57826;SDS011;43656;57.746;11.780;2023-05-16T09:02:40;10.15;;;7.68;;
57826;SDS011;43656;57.746;11.780;2023-05-16T09:05:10;13.45;;;7.82;;
57826;SDS011;43656;57.746;11.780;2023-05-16T09:07:38;13.80;;;8.10;;
57826;SDS011;43656;57.746;11.780;2023-05-16T09:10:05;11.95;;;8.48;;
57826;SDS011;43656;57.746;11.780;2023-05-16T09:12:31;9.52;;;6.78;;
57826;SDS011;43656;57.746;11.780;2023-05-16T09:14:58;11.02;;;6.93;;
57826;SDS011;43656;57.746;11.780;2023-05-16T09:17:26;10.40;;;6.65;;
57826;SDS011;43656;57.746;11.780;2023-05-16T09:20:06;12.65;;;6.10;;
57826;SDS011;43656;57.746;11.780;2023-05-16T09:22:33;10.18;;;5.78;;
57826;SDS011;43656;57.746;11.780;2023-05-16T09:24:58;10.23;;;6.05;;
57826;SDS011;43656;57.746;11.780;2023-05-16T09:27:24;13.95;;;7.03;;
57826;SDS011;43656;57.746;11.780;2023-05-16T09:29:50;11.02;;;5.63;;
57826;SDS011;43656;57.746;11.780;2023-05-16T09:32:16;10.32;;;5.75;;
57826;SDS011;43656;57.746;11.780;2023-05-16T09:34:43;10.20;;;4.97;;
57826;SDS011;43656;57.746;11.780;2023-05-16T09:37:10;11.43;;;5.53;;
57826;SDS011;43656;57.746;11.780;2023-05-16T09:39:40;11.98;;;5.18;;
57826;SDS011;43656;57.746;11.780;2023-05-16T09:42:11;9.50;;;4.85;;
57826;SDS011;43656;57.746;11.780;2023-05-16T09:44:38;12.27;;;5.38;;
57826;SDS011;43656;57.746;11.780;2023-05-16T09:47:06;9.50;;;5.53;;
57826;SDS011;43656;57.746;11.780;2023-05-16T09:49:31;9.43;;;5.57;;
57826;SDS011;43656;57.746;11.780;2023-05-16T09:52:00;10.93;;;5.95;;
57826;SDS011;43656;57.746;11.780;2023-05-16T11:59:02;8.05;;;3.50;;
57826;SDS011;43656;57.746;11.780;2023-05-16T12:01:35;9.00;;;3.83;;
57826;SDS011;43656;57.746;11.780;2023-05-16T12:04:07;8.07;;;3.78;;
57826;SDS011;43656;57.746;11.780;2023-05-16T12:06:35;12.02;;;3.95;;
57826;SDS011;43656;57.746;11.780;2023-05-16T12:09:02;10.10;;;4.00;;
57826;SDS011;43656;57.746;11.780;2023-05-16T12:11:38;9.07;;;3.90;;
57826;SDS011;43656;57.746;11.780;2023-05-16T12:14:05;11.43;;;4.55;;
57826;SDS011;43656;57.746;11.780;2023-05-16T12:16:32;8.45;;;4.53;;
57826;SDS011;43656;57.746;11.780;2023-05-16T12:18:59;8.70;;;4.10;;
57826;SDS011;43656;57.746;11.780;2023-05-16T12:21:26;9.57;;;4.07;;
57826;SDS011;43656;57.746;11.780;2023-05-16T12:23:54;7.68;;;4.25;;
57826;SDS011;43656;57.746;11.780;2023-05-16T12:26:25;10.00;;;4.95;;
57826;SDS011;43656;57.746;11.780;2023-05-16T12:28:55;7.88;;;4.03;;
57826;SDS011;43656;57.746;11.780;2023-05-16T12:31:24;8.43;;;4.03;;
57826;SDS011;43656;57.746;11.780;2023-05-16T12:33:54;8.68;;;4.25;;
57826;SDS011;43656;57.746;11.780;2023-05-16T12:36:20;11.35;;;4.07;;
57826;SDS011;43656;57.746;11.780;2023-05-16T12:38:47;9.13;;;3.97;;
57826;SDS011;43656;57.746;11.780;2023-05-16T12:41:18;8.13;;;4.63;;
57826;SDS011;43656;57.746;11.780;2023-05-16T12:43:45;8.13;;;4.03;;
57826;SDS011;43656;57.746;11.780;2023-05-16T12:46:12;8.65;;;4.00;;
57826;SDS011;43656;57.746;11.780;2023-05-16T12:48:37;6.60;;;3.60;;
57826;SDS011;43656;57.746;11.780;2023-05-16T12:51:12;6.75;;;3.72;;
57826;SDS011;43656;57.746;11.780;2023-05-16T12:53:42;7.15;;;4.57;;
57826;SDS011;43656;57.746;11.780;2023-05-16T12:56:13;9.75;;;4.90;;
57826;SDS011;43656;57.746;11.780;2023-05-16T12:58:39;7.93;;;4.70;;
57826;SDS011;43656;57.746;11.780;2023-05-16T13:01:05;6.70;;;4.20;;
57826;SDS011;43656;57.746;11.780;2023-05-16T13:03:31;9.82;;;4.40;;
57826;SDS011;43656;57.746;11.780;2023-05-16T13:05:58;12.50;;;4.57;;
57826;SDS011;43656;57.746;11.780;2023-05-16T13:08:24;8.18;;;4.28;;
57826;SDS011;43656;57.746;11.780;2023-05-16T13:10:54;10.63;;;4.13;;
57826;SDS011;43656;57.746;11.780;2023-05-16T13:13:20;9.32;;;4.30;;
57826;SDS011;43656;57.746;11.780;2023-05-16T13:15:46;5.72;;;4.03;;
57826;SDS011;43656;57.746;11.780;2023-05-16T13:18:12;8.73;;;4.57;;
57826;SDS011;43656;57.746;11.780;2023-05-16T13:20:38;7.55;;;4.25;;
57826;SDS011;43656;57.746;11.780;2023-05-16T13:23:04;6.97;;;4.13;;
57826;SDS011;43656;57.746;11.780;2023-05-16T13:25:33;8.43;;;4.13;;
57826;SDS011;43656;57.746;11.780;2023-05-16T13:27:58;11.45;;;4.55;;
57826;SDS011;43656;57.746;11.780;2023-05-16T13:30:24;9.20;;;4.10;;
57826;SDS011;43656;57.746;11.780;2023-05-16T13:32:50;6.70;;;4.28;;
57826;SDS011;43656;57.746;11.780;2023-05-16T13:35:18;5.72;;;3.65;;
57826;SDS011;43656;57.746;11.780;2023-05-16T13:37:43;7.38;;;4.30;;
57826;SDS011;43656;57.746;11.780;2023-05-16T13:40:09;9.25;;;4.15;;
57826;SDS011;43656;57.746;11.780;2023-05-16T13:42:38;6.50;;;3.95;;
57826;SDS011;43656;57.746;11.780;2023-05-16T13:45:04;6.00;;;4.20;;
57826;SDS011;43656;57.746;11.780;2023-05-16T13:47:30;9.15;;;4.35;;
57826;SDS011;43656;57.746;11.780;2023-05-16T13:49:57;4.60;;;4.10;;
57826;SDS011;43656;57.746;11.780;2023-05-16T13:52:23;7.95;;;4.20;;
57826;SDS011;43656;57.746;11.780;2023-05-16T13:54:49;6.50;;;4.30;;
57826;SDS011;43656;57.746;11.780;2023-05-16T13:57:15;7.40;;;4.47;;
57826;SDS011;43656;57.746;11.780;2023-05-16T13:59:41;5.95;;;4.40;;
57826;SDS011;43656;57.746;11.780;2023-05-16T14:02:07;6.35;;;4.65;;
57826;SDS011;43656;57.746;11.780;2023-05-16T14:04:32;7.90;;;4.50;;
57826;SDS011;43656;57.746;11.780;2023-05-16T14:06:58;8.20;;;4.80;;
57826;SDS011;43656;57.746;11.780;2023-05-16T14:09:23;8.77;;;4.78;;
57826;SDS011;43656;57.746;11.780;2023-05-16T14:11:48;10.25;;;4.53;;
57826;SDS011;43656;57.746;11.780;2023-05-16T14:14:14;7.10;;;4.55;;
57826;SDS011;43656;57.746;11.780;2023-05-16T14:16:39;5.60;;;4.38;;
57826;SDS011;43656;57.746;11.780;2023-05-16T14:19:09;8.65;;;4.80;;
57826;SDS011;43656;57.746;11.780;2023-05-16T14:21:35;6.72;;;4.28;;
57826;SDS011;43656;57.746;11.780;2023-05-16T14:24:00;6.38;;;4.88;;
57826;SDS011;43656;57.746;11.780;2023-05-16T14:26:26;8.45;;;4.97;;
57826;SDS011;43656;57.746;11.780;2023-05-16T14:28:51;8.25;;;4.95;;
57826;SDS011;43656;57.746;11.780;2023-05-16T14:31:17;9.13;;;4.85;;
57826;SDS011;43656;57.746;11.780;2023-05-16T14:33:43;7.20;;;5.05;;
57826;SDS011;43656;57.746;11.780;2023-05-16T14:36:08;6.88;;;4.72;;
57826;SDS011;43656;57.746;11.780;2023-05-16T14:38:34;7.03;;;4.95;;
57826;SDS011;43656;57.746;11.780;2023-05-16T14:41:00;9.88;;;4.63;;
57826;SDS011;43656;57.746;11.780;2023-05-16T14:43:25;7.30;;;4.63;;
57826;SDS011;43656;57.746;11.780;2023-05-16T14:45:51;6.18;;;4.70;;
57826;SDS011;43656;57.746;11.780;2023-05-16T14:48:16;9.25;;;5.20;;
57826;SDS011;43656;57.746;11.780;2023-05-16T14:50:42;7.50;;;4.60;;
57826;SDS011;43656;57.746;11.780;2023-05-16T14:53:07;9.60;;;4.70;;
57826;SDS011;43656;57.746;11.780;2023-05-16T14:55:33;5.63;;;4.70;;
57826;SDS011;43656;57.746;11.780;2023-05-16T14:57:58;6.88;;;4.57;;
57826;SDS011;43656;57.746;11.780;2023-05-16T15:00:24;6.57;;;4.50;;
57826;SDS011;43656;57.746;11.780;2023-05-16T15:02:50;7.45;;;4.97;;
57826;SDS011;43656;57.746;11.780;2023-05-16T15:05:16;7.90;;;4.75;;
57826;SDS011;43656;57.746;11.780;2023-05-16T15:07:42;5.78;;;4.22;;
57826;SDS011;43656;57.746;11.780;2023-05-16T15:10:10;6.60;;;4.38;;
57826;SDS011;43656;57.746;11.780;2023-05-16T15:12:36;7.63;;;4.63;;
57826;SDS011;43656;57.746;11.780;2023-05-16T15:15:05;7.13;;;4.43;;
57826;SDS011;43656;57.746;11.780;2023-05-16T15:17:31;6.55;;;4.70;;
57826;SDS011;43656;57.746;11.780;2023-05-16T15:19:56;7.18;;;4.60;;
57826;SDS011;43656;57.746;11.780;2023-05-16T15:22:22;8.50;;;4.75;;
57826;SDS011;43656;57.746;11.780;2023-05-16T15:24:48;9.70;;;4.72;;
57826;SDS011;43656;57.746;11.780;2023-05-16T15:27:14;8.73;;;5.07;;
57826;SDS011;43656;57.746;11.780;2023-05-16T15:29:40;5.97;;;5.07;;
57826;SDS011;43656;57.746;11.780;2023-05-16T15:32:05;6.45;;;5.45;;
57826;SDS011;43656;57.746;11.780;2023-05-16T15:34:32;9.35;;;6.00;;
57826;SDS011;43656;57.746;11.780;2023-05-16T15:36:59;11.65;;;5.82;;
57826;SDS011;43656;57.746;11.780;2023-05-16T15:39:24;10.05;;;6.22;;
57826;SDS011;43656;57.746;11.780;2023-05-16T15:41:51;9.93;;;5.78;;
57826;SDS011;43656;57.746;11.780;2023-05-16T15:44:17;10.75;;;6.55;;
57826;SDS011;43656;57.746;11.780;2023-05-16T15:46:44;9.43;;;6.57;;
57826;SDS011;43656;57.746;11.780;2023-05-16T15:49:10;8.27;;;6.38;;
57826;SDS011;43656;57.746;11.780;2023-05-16T15:51:36;8.77;;;5.90;;
57826;SDS011;43656;57.746;11.780;2023-05-16T15:54:02;7.63;;;6.05;;
57826;SDS011;43656;57.746;11.780;2023-05-16T15:56:28;10.90;;;6.07;;
57826;SDS011;43656;57.746;11.780;2023-05-16T15:58:53;9.50;;;6.35;;
57826;SDS011;43656;57.746;11.780;2023-05-16T16:01:20;8.75;;;6.15;;
57826;SDS011;43656;57.746;11.780;2023-05-16T16:03:45;8.40;;;6.32;;
57826;SDS011;43656;57.746;11.780;2023-05-16T16:06:11;9.70;;;6.18;;
57826;SDS011;43656;57.746;11.780;2023-05-16T16:08:36;9.90;;;6.57;;
57826;SDS011;43656;57.746;11.780;2023-05-16T16:11:02;9.68;;;6.78;;
57826;SDS011;43656;57.746;11.780;2023-05-16T16:13:28;8.55;;;6.32;;
57826;SDS011;43656;57.746;11.780;2023-05-16T16:15:54;13.45;;;8.60;;
57826;SDS011;43656;57.746;11.780;2023-05-16T16:18:20;8.88;;;7.25;;
57826;SDS011;43656;57.746;11.780;2023-05-16T16:20:45;11.77;;;6.93;;
57826;SDS011;43656;57.746;11.780;2023-05-16T16:23:11;11.18;;;7.40;;
57826;SDS011;43656;57.746;11.780;2023-05-16T16:25:36;10.85;;;7.00;;
57826;SDS011;43656;57.746;11.780;2023-05-16T16:28:02;10.90;;;6.90;;
57826;SDS011;43656;57.746;11.780;2023-05-16T16:30:27;8.60;;;6.18;;
57826;SDS011;43656;57.746;11.780;2023-05-16T16:32:53;11.00;;;6.38;;
57826;SDS011;43656;57.746;11.780;2023-05-16T16:35:18;8.32;;;6.28;;